sim
Sign-in with your pilot id or email,
or register
Callsign
Passwort

Schedule Details

Flight Number: CLX7585 (1B)
Departure: Damascus International Airport (OSDI) at 23:40
Arrival: Hong Kong International Airport (VHHH) at 06:55
Route: Cargolux Cargo Schedule. Enter filed route here before submitting Pirep.

Weather Information
Getting current METAR information for OSDI 010100Z 21012KT CAVOK 07/06 Q1016
Getting current METAR information for VHHH 010130Z 04004KT 9999 -RA FEW017 SCT028 22/18 Q1017 NOSIG

Schedule Frequency

Route Map